KBVY/BVY METAR and TAF weather

Enter ICAO airport designator
Station Type Date Time Source
KBVY METAR 2020/07/14 06:00 UTC NOAA

KBVY 140600Z AUTO 00000KT 1 3/4SM BR CLR 19/18 A2981 RMK AO2 T01890183


Station Type Date Time Source
KBVY Decoded METAR 2020/07/14 06:00 UTC NOAA

BEVERLY MUNICIPAL AIRPORT, MA, United States (KBVY) 42-35N 070-55W 28M
Jul 14, 2020 - 02:00 AM EDT / 2020.07.14 0600 UTC
Wind: Calm:0
Visibility: 1 3/4 mile(s):0
Sky conditions: clear
Weather: mist
Temperature: 66.0 F (18.9 C)
Dew Point: 64.9 F (18.3 C)
Relative Humidity: 96%
Pressure (altimeter): 29.81 in. Hg (1009 hPa)
ob: KBVY 140600Z AUTO 00000KT 1 3/4SM BR CLR 19/18 A2981 RMK AO2 T01890183
cycle: 6

Station Type Date Time Source
KBVY TAF UTC NOAA

Error!

Example: see airport list